Flight Track Log - Related Links

Times and Time Zones

All times are in EDT time to prevent confusion due to time zone crossing. See the EJM826 flight status page for this flight to view local times or setup timezone preferences in your user account.

Time Position Orientation Groundspeed Altitude Reporting Facility
EDT Latitude Longitude Course Direction KTS MPH feet Rate Location/Type
Sat 04:12:43 PM 39.8667 -75.2667 256° West 166 191 700  Level Philadelphia TRACON
Sat 04:14:48 PM 39.8336 -75.4369 256° West 248 285 4,800 2,303 Climbing New Center
Sat 04:15:48 PM 39.8172 -75.5331 258° West 275 316 7,800 2,367 Climbing New Center
Sat 04:17:00 PM 39.8004 -75.6981 255° West  Level FlightAware
Sat 04:17:48 PM 39.8292 -75.7475 255° West 303 349 11,900  Level New Center
Sat 04:18:48 PM 39.8181 -75.8656 263° West 337 388 13,800 1,800 Climbing New Center
Sat 04:19:48 PM 39.8064 -75.9889 263° West 343 395 15,500 1,600 Climbing New Center
Sat 04:20:48 PM 39.7917 -76.1283 262° West 353 406 17,000 1,500 Climbing New Center
Sat 04:21:48 PM 39.7814 -76.2600 264° West 365 420 18,500 1,300 Climbing New Center
Sat 04:22:48 PM 39.7717 -76.3783 264° West 370 426 19,600 950 Climbing New Center
Sat 04:23:48 PM 39.7581 -76.5092 262° West 372 428 20,400 1,041 Climbing Washington Center
Sat 04:24:49 PM 39.7425 -76.6439 262° West 390 449 21,700 1,240 Climbing Washington Center
Sat 04:25:49 PM 39.7267 -76.7814 262° West 390 449 22,900 1,100 Climbing Washington Center
Sat 04:26:49 PM 39.7147 -76.9158 263° West 385 443 23,900 950 Climbing Washington Center
Sat 04:27:49 PM 39.7006 -77.0558 263° West 390 449 24,800 915 Climbing Washington Center
Sat 04:28:47 PM 39.6864 -77.1933 262° West 390 449 25,700 908 Climbing Washington Center
Sat 04:29:48 PM 39.6367 -77.3242 244° Southwest 390 449 26,600 787 Climbing Washington Center
Sat 04:30:49 PM 39.5786 -77.4492 239° Southwest 395 455 27,300 655 Climbing Washington Center
Sat 04:31:47 PM 39.5161 -77.5767 238° Southwest 412 474 27,900 555 Climbing Washington Center
Sat 04:32:48 PM 39.4533 -77.7067 238° Southwest 424 488 28,400 793 Climbing Washington Center
Sat 04:33:48 PM 39.3906 -77.8392 239° Southwest 429 494 29,500 1,091 Climbing Washington Center
Sat 04:34:49 PM 39.3381 -77.9717 243° Southwest 424 488 30,600 1,091 Climbing Washington Center
Sat 04:35:49 PM 39.2853 -78.1014 242° Southwest 418 481 31,700 1,271 Climbing Washington Center
Sat 04:36:47 PM 39.2325 -78.2336 243° Southwest 418 481 33,100 1,525 Climbing Washington Center
Sat 04:37:47 PM 39.1817 -78.3631 243° Southwest 413 475 34,700 1,438 Climbing Washington Center
Sat 04:38:48 PM 39.1308 -78.4869 242° Southwest 401 461 36,000 1,180 Climbing Washington Center
Sat 04:39:49 PM 39.0819 -78.6133 244° Southwest 401 461 37,100 1,109 Climbing Washington Center
Sat 04:40:47 PM 39.0308 -78.7367 242° Southwest 401 461 38,200 1,008 Climbing Washington Center
Sat 04:41:48 PM 38.9794 -78.8628 242° Southwest 401 461 39,100 885 Climbing Washington Center
Sat 04:42:49 PM 38.9278 -78.9911 243° Southwest 401 461 40,000 454 Climbing Washington Center
Sat 04:43:47 PM 38.8719 -79.1219 241° Southwest 406 467 40,000  Level Washington Center
Sat 04:44:47 PM 38.8281 -79.2664 249° West 421 484 40,000  Level Washington Center
Sat 04:45:49 PM 38.8006 -79.4169 257° West 431 496 40,000  Level Washington Center
Sat 04:46:49 PM 38.7786 -79.5728 260° West 436 502 40,000  Level Washington Center
Sat 04:47:47 PM 38.7506 -79.7231 257° West 441 507 40,000  Level Washington Center
Sat 04:49:07 PM 38.7100 -79.9233 256° West 423 487 40,000  Level Indianapolis Center
Sat 04:50:08 PM 38.6822 -80.0694 256° West 423 487 40,000  Level Indianapolis Center
Sat 04:51:10 PM 38.6542 -80.2144 256° West 421 484 40,000  Level Indianapolis Center
Sat 04:52:11 PM 38.6275 -80.3589 257° West 418 481 40,000  Level Indianapolis Center
Sat 04:53:12 PM 38.6000 -80.5033 256° West 417 480 40,000  Level Indianapolis Center
Sat 04:54:13 PM 38.5719 -80.6478 256° West 419 482 40,000  Level Indianapolis Center
Sat 04:55:14 PM 38.5447 -80.7911 256° West 415 478 40,000  Level Indianapolis Center
Sat 04:56:16 PM 38.5161 -80.9344 256° West 415 478 40,000  Level Indianapolis Center
Sat 04:57:17 PM 38.4886 -81.0783 256° West 416 479 40,000  Level Indianapolis Center
Sat 04:58:18 PM 38.4594 -81.2206 255° West 411 473 40,000  Level Indianapolis Center
Sat 04:59:19 PM 38.4306 -81.3636 256° West 412 474 40,000  Level Indianapolis Center
Sat 05:00:20 PM 38.4022 -81.5053 256° West 409 471 40,000  Level Indianapolis Center
Sat 05:01:21 PM 38.3750 -81.6467 256° West 406 467 40,000  Level Indianapolis Center
Sat 05:02:22 PM 38.3489 -81.7869 257° West 405 466 40,000  Level Indianapolis Center
Sat 05:03:24 PM 38.3422 -81.9303 267° West 400 460 40,000  Level Indianapolis Center
Sat 05:04:25 PM 38.3328 -82.1019 266° West 405 466 40,000  Level Indianapolis Center
Sat 05:05:26 PM 38.3264 -82.2469 267° West 408 470 40,000  Level Indianapolis Center
Sat 05:06:27 PM 38.3183 -82.3894 266° West 405 466 40,000  Level Indianapolis Center
Sat 05:07:28 PM 38.3103 -82.5311 266° West 405 466 40,000  Level Indianapolis Center
Sat 05:08:29 PM 38.3033 -82.6750 267° West 407 468 40,000  Level Indianapolis Center
Sat 05:09:31 PM 38.2942 -82.8167 265° West 405 466 40,000  Level Indianapolis Center
Sat 05:10:32 PM 38.2858 -82.9589 266° West 405 466 40,000  Level Indianapolis Center
Sat 05:11:33 PM 38.2772 -83.1011 266° West 404 465 40,000  Level Indianapolis Center
Sat 05:12:34 PM 38.2686 -83.2442 266° West 406 467 40,000  Level Indianapolis Center
Sat 05:13:35 PM 38.2583 -83.4106 266° West 404 465 40,000 49 Level Indianapolis Center
Sat 05:14:36 PM 38.2492 -83.5531 265° West 405 466 40,100 443 Climbing Indianapolis Center
Sat 05:15:37 PM 38.2400 -83.6978 265° West 409 471 40,900 787 Climbing Indianapolis Center
Sat 05:16:38 PM 38.2306 -83.8406 265° West 406 467 41,700 780 Climbing Indianapolis Center
Sat 05:17:40 PM 38.2211 -83.9817 265° West 402 463 42,500 634 Climbing Indianapolis Center
Sat 05:18:41 PM 38.2342 -84.1167 277° West 385 443 43,000 246 Climbing Indianapolis Center
Sat 05:19:42 PM 38.2556 -84.2508 282° West 386 444 43,000  Level Indianapolis Center
Sat 05:20:43 PM 38.2400 -84.3894 262° West 394 453 43,000  Level Indianapolis Center
Sat 05:21:44 PM 38.2183 -84.5283 259° West 399 459 43,000  Level Indianapolis Center
Sat 05:22:45 PM 38.1994 -84.6672 260° West 399 459 43,000  Level Indianapolis Center
Sat 05:23:46 PM 38.1761 -84.8294 260° West 400 460 43,000  Level Indianapolis Center
Sat 05:24:47 PM 38.1586 -84.9658 261° West 393 452 43,000  Level Indianapolis Center
Sat 05:25:49 PM 38.1450 -85.1031 263° West 393 452 43,000  Level Indianapolis Center
Sat 05:26:50 PM 38.1319 -85.2372 263° West 396 456 43,000  Level Indianapolis Center
Sat 05:27:51 PM 38.1203 -85.3756 264° West 395 455 43,000  Level Indianapolis Center
Sat 05:28:52 PM 38.1092 -85.5150 264° West 397 457 43,000  Level Indianapolis Center
Sat 05:29:53 PM 38.0969 -85.6544 264° West 396 456 43,000  Level Indianapolis Center
Sat 05:30:54 PM 38.0886 -85.7925 266° West 394 453 43,000  Level Indianapolis Center
Sat 05:31:55 PM 38.0781 -85.9300 264° West 391 450 43,000  Level Indianapolis Center
Sat 05:32:57 PM 38.0686 -86.0664 265° West 388 447 43,000  Level Indianapolis Center
Sat 05:33:58 PM 38.0567 -86.2025 264° West 388 447 43,000  Level Indianapolis Center
Sat 05:34:59 PM 38.0469 -86.3406 265° West 390 449 43,000  Level Indianapolis Center
Sat 05:36:00 PM 38.0358 -86.4756 264° West 385 443 43,000  Level Indianapolis Center
Sat 05:37:01 PM 38.0233 -86.6394 265° West 386 444 43,000  Level Indianapolis Center
Sat 05:38:03 PM 38.0125 -86.7744 264° West 384 442 43,000  Level Indianapolis Center
Sat 05:39:04 PM 38.0006 -86.9108 264° West 384 442 43,000  Level Indianapolis Center
Sat 05:40:05 PM 37.9900 -87.0481 264° West 386 444 43,000  Level Indianapolis Center
Sat 05:41:06 PM 37.9783 -87.1850 264° West 385 443 43,000  Level Indianapolis Center
Sat 05:42:07 PM 37.9672 -87.3203 264° West 384 442 43,000  Level Indianapolis Center
Sat 05:43:09 PM 37.9550 -87.4558 264° West 384 442 43,000  Level Indianapolis Center
Sat 05:44:10 PM 37.9442 -87.5892 264° West 380 437 43,000  Level Indianapolis Center
Sat 05:45:11 PM 37.9317 -87.7242 263° West 381 438 43,000  Level Indianapolis Center
Sat 05:46:12 PM 37.9197 -87.8578 264° West 382 440 43,000  Level Indianapolis Center
Sat 05:47:14 PM 37.9075 -87.9911 263° West 382 440 43,000  Level Indianapolis Center
Sat 05:48:15 PM 37.8972 -88.1239 264° West 380 437 43,000  Level Indianapolis Center
Sat 05:49:16 PM 37.9158 -88.2603 280° West 392 451 43,000  Level Indianapolis Center
Sat 05:50:17 PM 37.9306 -88.3964 278° West 389 448 43,000  Level Indianapolis Center
Sat 05:51:18 PM 37.9114 -88.5272 260° West 377 434 43,000  Level Indianapolis Center
Sat 05:52:20 PM 37.8944 -88.6589 261° West 377 434 43,000  Level Indianapolis Center
Sat 05:53:21 PM 37.8772 -88.7858 260° West 369 425 43,000  Level Indianapolis Center
Sat 05:54:22 PM 37.8614 -88.9144 261° West 368 423 43,000  Level Indianapolis Center
Sat 05:54:52 PM 37.8556 -88.9717 263° West 368 423 43,000  Level Kansas Center
Sat 05:55:53 PM 37.8383 -89.1275 262° West 375 432 43,000  Level Kansas Center
Sat 05:56:53 PM 37.8228 -89.2467 261° West 378 435 43,000  Level Kansas Center
Sat 05:57:57 PM 37.8036 -89.3872 260° West 373 429 43,000  Level Kansas Center
Sat 05:58:58 PM 37.7867 -89.5189 261° West 377 434 43,000  Level Kansas Center
Sat 05:59:59 PM 37.7700 -89.6519 261° West 380 437 43,000  Level Kansas Center
Sat 06:00:59 PM 37.7519 -89.7853 260° West 383 441 43,000  Level Kansas Center
Sat 06:02:01 PM 37.7353 -89.9181 261° West 383 441 43,000  Level Kansas Center
Sat 06:03:03 PM 37.7183 -90.0519 261° West 385 443 43,000  Level Kansas Center
Sat 06:04:06 PM 37.7008 -90.1869 261° West 387 445 43,000  Level Kansas Center
Sat 06:05:07 PM 37.6808 -90.3489 261° West 388 447 43,000  Level Kansas Center
Sat 06:06:08 PM 37.6619 -90.4814 260° West 386 444 43,000  Level Kansas Center
Sat 06:07:08 PM 37.6442 -90.6153 261° West 387 445 43,000  Level Kansas Center
Sat 06:08:10 PM 37.6289 -90.7506 262° West 389 448 43,000  Level Kansas Center
Sat 06:09:11 PM 37.6142 -90.8936 263° West 390 449 43,000  Level Kansas Center
Sat 06:10:15 PM 37.5992 -91.0286 262° West 389 448 43,000  Level Kansas Center
Sat 06:11:16 PM 37.5864 -91.1642 263° West 389 448 43,000  Level Kansas Center
Sat 06:12:17 PM 37.5725 -91.3008 263° West 390 449 43,000  Level Kansas Center
Sat 06:13:19 PM 37.5586 -91.4378 263° West 392 451 43,000  Level Kansas Center
Sat 06:14:20 PM 37.5450 -91.5733 263° West 390 449 43,000  Level Kansas Center
Sat 06:15:21 PM 37.5319 -91.7097 263° West 390 449 43,000  Level Kansas Center
Sat 06:16:22 PM 37.5144 -91.8736 262° West 390 449 43,000  Level Kansas Center
Sat 06:17:23 PM 37.5006 -92.0097 263° West 390 449 43,000  Level Kansas Center
Sat 06:18:26 PM 37.4867 -92.1475 263° West 392 451 43,000  Level Kansas Center
Sat 06:19:25 PM 37.4714 -92.2822 262° West 388 447 43,000  Level Kansas Center
Sat 06:20:29 PM 37.4569 -92.4178 262° West 386 444 43,000  Level Kansas Center
Sat 06:21:29 PM 37.4436 -92.5522 263° West 385 443 43,000  Level Kansas Center
Sat 06:22:30 PM 37.4289 -92.6856 262° West 383 441 43,000  Level Kansas Center
Sat 06:23:34 PM 37.4142 -92.8172 262° West 380 437 43,000  Level Kansas Center
Sat 06:24:33 PM 37.3983 -92.9481 261° West 377 434 43,000  Level Kansas Center
Sat 06:25:34 PM 37.3836 -93.0819 262° West 381 438 43,000  Level Kansas Center
Sat 06:26:38 PM 37.3686 -93.2142 262° West 381 438 43,000  Level Kansas Center
Sat 06:27:39 PM 37.3522 -93.3458 261° West 380 437 43,000  Level Kansas Center
Sat 06:28:41 PM 37.3125 -93.4631 247° West 366 421 43,000  Level Kansas Center
Sat 06:29:42 PM 37.2761 -93.5842 249° West 369 425 43,000  Level Kansas Center
Sat 06:30:44 PM 37.2317 -93.7272 249° West 366 421 43,000  Level Kansas Center
Sat 06:31:44 PM 37.1944 -93.8469 249° West 367 422 43,000  Level Kansas Center
Sat 06:32:46 PM 37.1558 -93.9672 248° West 369 425 43,000  Level Kansas Center
Sat 06:33:46 PM 37.1225 -94.0767 249° West 370 426 43,000  Level Kansas Center
Sat 06:34:48 PM 37.0844 -94.1958 248° West 369 425 43,000  Level Kansas Center
Sat 06:35:49 PM 37.0394 -94.3406 249° West 372 428 43,000  Level Kansas Center
Sat 06:36:50 PM 37.0006 -94.4617 248° West 375 432 43,000  Level Kansas Center
Sat 06:37:53 PM 36.9622 -94.5819 248° West 373 429 43,000  Level Kansas Center
Sat 06:38:54 PM 36.9239 -94.7033 248° West 375 432 43,000  Level Kansas Center
Sat 06:39:55 PM 36.8869 -94.8233 249° West 372 428 43,000  Level Kansas Center
Sat 06:40:56 PM 36.8483 -94.9447 248° West 374 430 43,000  Level Kansas Center
Sat 06:41:57 PM 36.8092 -95.0642 248° West 373 429 43,000  Level Kansas Center
Sat 06:42:58 PM 36.7703 -95.1836 248° West 373 429 43,000  Level Kansas Center
Sat 06:44:02 PM 36.7308 -95.3050 248° West 376 433 43,000  Level Kansas Center
Sat 06:45:03 PM 36.6850 -95.4481 248° West 375 432 43,000  Level Kansas Center
Sat 06:46:03 PM 36.6472 -95.5661 248° West 373 429 43,000  Level Kansas Center
Sat 06:47:04 PM 36.6083 -95.6836 248° West 371 427 43,000  Level Kansas Center
Sat 06:48:05 PM 36.5683 -95.7997 247° West 370 426 43,000  Level Kansas Center
Sat 06:49:08 PM 36.5292 -95.9156 247° West 368 423 43,000  Level Kansas Center
Sat 06:50:09 PM 36.4906 -96.0328 248° West 368 423 43,000  Level Kansas Center
Sat 06:51:10 PM 36.4519 -96.1503 248° West 369 425 43,000  Level Kansas Center
Sat 06:52:10 PM 36.4036 -96.2903 247° West 369 425 43,000  Level Kansas Center
Sat 06:53:11 PM 36.3639 -96.4089 247° West 372 428 43,000  Level Kansas Center
Sat 06:54:12 PM 36.3242 -96.5275 247° West 373 429 43,000  Level Kansas Center
Sat 06:55:15 PM 36.2828 -96.6461 247° West 375 432 43,000  Level Kansas Center
Sat 06:56:16 PM 36.2419 -96.7678 247° West 373 429 43,000  Level Kansas Center
Sat 06:57:17 PM 36.2006 -96.8858 247° West 375 432 43,000  Level Kansas Center
Sat 06:58:20 PM 36.1594 -97.0036 247° West 375 432 43,000  Level Kansas Center
Sat 06:59:21 PM 36.1186 -97.1233 247° West 378 435 43,000  Level Kansas Center
Sat 07:00:23 PM 36.0692 -97.2647 247° West 377 434 43,000  Level Kansas Center
Sat 07:01:26 PM 36.0272 -97.3831 246° West 378 435 43,000  Level Kansas Center
Sat 07:02:27 PM 35.9864 -97.5003 247° West 376 433 43,000  Level Kansas Center
Sat 07:03:28 PM 35.9444 -97.6186 246° West 378 435 43,000  Level Kansas Center
Sat 07:04:28 PM 35.9025 -97.7367 246° West 378 435 43,000  Level Kansas Center
Sat 07:05:32 PM 35.8608 -97.8533 246° West 377 434 43,000  Level Kansas Center
Sat 07:06:33 PM 35.8192 -97.9706 246° West 376 433 43,000  Level Kansas Center
Sat 07:07:33 PM 35.7933 -98.0992 256° West 385 443 43,000  Level Kansas Center
Sat 07:08:33 PM 35.7775 -98.2283 261° West 382 440 43,000  Level Kansas Center
Sat 07:09:37 PM 35.7603 -98.3564 261° West 379 436 43,000  Level Kansas Center
Sat 07:10:38 PM 35.7400 -98.5114 261° West 380 437 43,000  Level Kansas Center
Sat 07:11:38 PM 35.7222 -98.6411 260° West 382 440 43,000  Level Kansas Center
Sat 07:12:40 PM 35.7053 -98.7711 261° West 382 440 43,000  Level Kansas Center
Sat 07:13:41 PM 35.6875 -98.9031 261° West 385 443 43,000  Level Kansas Center
Sat 07:14:42 PM 35.6581 -99.0306 254° West 388 447 43,000  Level Kansas Center
Sat 07:15:53 PM 35.5753 -99.1617 232° Southwest 388 447 43,000  Level Fort Center
Sat 07:16:53 PM 35.5053 -99.2597 229° Southwest 388 447 43,000  Level Fort Center
Sat 07:17:53 PM 35.4347 -99.3625 230° Southwest 394 453 43,000  Level Fort Center
Sat 07:18:53 PM 35.3642 -99.4653 230° Southwest 394 453 43,000  Level Fort Center
Sat 07:19:53 PM 35.2939 -99.5653 229° Southwest 399 459 43,000  Level Fort Center
Sat 07:20:53 PM 35.2211 -99.6678 229° Southwest 399 459 43,000  Level Fort Center
Sat 07:21:53 PM 35.1483 -99.7697 229° Southwest 399 459 43,000  Level Fort Center
Sat 07:22:53 PM 35.0775 -99.8719 230° Southwest 399 459 43,000  Level Fort Center
Sat 07:23:54 PM 35.0194 -99.9539 229° Southwest 399 459 43,000 -950 Level Fort Center
Sat 07:24:53 PM 34.9400 -100.0628 228° Southwest 399 459 41,100 -2,218 Descending Fort Center
Sat 07:25:53 PM 34.8689 -100.1694 231° Southwest 404 465 38,600 -2,500 Descending Fort Center
Sat 07:26:53 PM 34.7981 -100.2633 227° Southwest 399 459 36,100 -2,550 Descending Fort Center
Sat 07:27:53 PM 34.7292 -100.3594 229° Southwest 393 452 33,500 -2,750 Descending Fort Center
Sat 07:28:53 PM 34.6556 -100.4681 231° Southwest 387 445 30,600 -2,750 Descending Fort Center
Sat 07:29:53 PM 34.5819 -100.5714 229° Southwest 393 452 28,000 -2,550 Descending Fort Center
Sat 07:30:53 PM 34.5086 -100.6719 229° Southwest 405 466 25,500 -1,800 Descending Fort Center
Sat 07:31:53 PM 34.4369 -100.7700 228° Southwest 400 460 24,400 -1,200 Descending Fort Center
Sat 07:32:53 PM 34.3719 -100.8606 229° Southwest 400 460 23,100 -1,722 Descending Fort Center
Sat 07:33:41 PM 34.3072 -100.9433 227° Southwest 400 460 21,300 -1,967 Descending Fort Center
Sat 07:33:54 PM 34.2961 -100.9656 239° Southwest 400 460 21,100 -2,000 Descending Fort Center
Sat 07:34:05 PM 34.2767 -100.9872 223° Southwest 411 473 20,500 -2,273 Descending Fort Center
Sat 07:35:00 PM 34.2028 -101.0922 230° Southwest 426 490 18,600 -2,087 Descending Fort Center
Sat 07:36:00 PM 34.1222 -101.1967 227° Southwest 415 478 16,500 -2,132 Descending Fort Center
Sat 07:37:01 PM 34.0525 -101.2989 231° Southwest 399 459 14,300 -2,182 Descending Fort Center
Sat 07:38:01 PM 33.9767 -101.3856 223° Southwest 330 380 12,100 -1,714 Descending Fort Center
Sat 07:38:53 PM 33.9233 -101.4208 209° Southwest 334 384 11,100 -1,475 Descending Fort Center
Sat 07:39:02 PM 33.9000 -101.4347 206° Southwest 289 333 10,600 -1,700 Descending Fort Center
Sat 07:39:53 PM 33.8525 -101.4800 218° Southwest 295 339 9,400 -1,377 Descending Fort Center
Sat 07:40:03 PM 33.8378 -101.4894 208° Southwest 271 312 9,200 -1,300 Descending Fort Center
Sat 07:40:53 PM 33.8028 -101.5328 226° Southwest 274 315 8,100 -1,300 Descending Fort Center
Sat 07:41:03 PM 33.7856 -101.5519 223° Southwest 260 299 7,900 -900 Descending Fort Center
Sat 07:41:53 PM 33.7461 -101.6075 230° Southwest 274 315 7,200 -787 Descending Fort Center
Sat 07:42:04 PM 33.7375 -101.6194 229° Southwest 277 319 7,100 -1,300 Descending Fort Center
Sat 07:42:53 PM 33.7022 -101.6703 230° Southwest 282 325 5,900 -1,600 Descending Fort Center
Sat 07:43:04 PM 33.6869 -101.6919 230° Southwest 280 322 5,500 -1,600 Descending Fort Center
Sat 07:43:53 PM 33.6622 -101.7433 240° Southwest 258 297 4,300 -1,377 Descending Fort Center
Sat 07:44:05 PM 33.6597 -101.7531 253° West 197 227 4,100 -800 Descending Fort Center
Sat 07:44:53 PM 33.6628 -101.7881 276° West 173 199 3,500 -500 Descending Fort Center
Sat 07:45:53 PM 33.6544 -101.8475 260° West 164 189 3,200 5,250 Descending Fort Center
Sat 07:46:53 PM 33.6461 -101.9044 260° West 164 189 14,000 5,400 Climbing Fort Center
Sat 07:47:53 PM 33.6400 -101.9592 262° West 164 189 14,000  Level Fort Center
Sat 07:49:00 PM 33.6637 -101.8206 78° East  Level Estimated
Sat 07:56:00 PM 33.6637 -101.8206 132° Southeast  Level Estimated
Sat 07:57:00 PM 33.6637 -101.8206 132° Southeast  Level Estimated
Sat 07:58:00 PM 33.6637 -101.8206 132° Southeast  Level Estimated
Sat 07:59:00 PM 33.6637 -101.8206 132° Southeast  Level Estimated
Sat 08:00:00 PM 33.6637 -101.8206 132° Southeast  Level Estimated
Sat 08:01:00 PM 33.6637 -101.8206 132° Southeast  Level Estimated

Login

Don't have an account? Register now (free) for customized features, flight alerts, and more!